sensor_id;sensor_type;location;lat;lon;timestamp;pressure;altitude;pressure_sealevel;temperature;humidity
68193;BME280;55012;47.562;18.414;2023-04-01T00:00:11;92113.75;;;7.99;100.00
68193;BME280;55012;47.562;18.414;2023-04-01T00:02:37;92117.69;;;7.98;100.00
68193;BME280;55012;47.562;18.414;2023-04-01T00:05:03;92105.00;;;7.93;100.00
68193;BME280;55012;47.562;18.414;2023-04-01T00:07:28;92046.84;;;7.89;100.00
68193;BME280;55012;47.562;18.414;2023-04-01T00:09:54;92040.97;;;7.91;100.00
68193;BME280;55012;47.562;18.414;2023-04-01T00:12:19;92029.19;;;7.94;100.00
68193;BME280;55012;47.562;18.414;2023-04-01T00:14:45;92020.16;;;7.97;100.00
68193;BME280;55012;47.562;18.414;2023-04-01T00:17:10;92011.28;;;8.02;100.00
68193;BME280;55012;47.562;18.414;2023-04-01T00:19:36;92030.34;;;8.04;100.00
68193;BME280;55012;47.562;18.414;2023-04-01T00:22:02;92016.41;;;8.06;100.00
68193;BME280;55012;47.562;18.414;2023-04-01T00:24:28;92101.19;;;8.12;100.00
68193;BME280;55012;47.562;18.414;2023-04-01T00:26:54;92079.38;;;8.16;100.00
68193;BME280;55012;47.562;18.414;2023-04-01T00:29:19;92058.53;;;8.22;100.00
68193;BME280;55012;47.562;18.414;2023-04-01T00:31:45;91989.84;;;8.21;100.00
68193;BME280;55012;47.562;18.414;2023-04-01T00:34:11;91967.59;;;8.21;100.00
68193;BME280;55012;47.562;18.414;2023-04-01T00:36:37;91819.19;;;8.16;100.00
68193;BME280;55012;47.562;18.414;2023-04-01T00:39:03;91814.53;;;8.17;100.00
68193;BME280;55012;47.562;18.414;2023-04-01T00:41:29;91800.16;;;8.14;100.00
68193;BME280;55012;47.562;18.414;2023-04-01T00:44:15;91782.38;;;8.11;100.00
68193;BME280;55012;47.562;18.414;2023-04-01T00:46:41;91096.94;;;8.08;100.00
68193;BME280;55012;47.562;18.414;2023-04-01T00:49:07;91091.69;;;8.02;100.00
68193;BME280;55012;47.562;18.414;2023-04-01T00:51:32;91089.88;;;7.97;100.00
68193;BME280;55012;47.562;18.414;2023-04-01T00:54:01;91090.00;;;7.92;100.00
68193;BME280;55012;47.562;18.414;2023-04-01T00:59:04;91078.28;;;7.81;100.00
68193;BME280;55012;47.562;18.414;2023-04-01T01:01:34;91074.16;;;7.80;100.00
68193;BME280;55012;47.562;18.414;2023-04-01T01:04:01;91082.53;;;7.77;100.00
68193;BME280;55012;47.562;18.414;2023-04-01T01:09:20;91078.56;;;7.70;100.00
68193;BME280;55012;47.562;18.414;2023-04-01T01:12:01;91046.31;;;7.70;100.00
68193;BME280;55012;47.562;18.414;2023-04-01T01:14:42;91040.22;;;7.70;100.00
68193;BME280;55012;47.562;18.414;2023-04-01T01:17:29;91029.25;;;7.68;100.00
68193;BME280;55012;47.562;18.414;2023-04-01T01:25:52;91041.19;;;7.59;100.00
68193;BME280;55012;47.562;18.414;2023-04-01T01:31:12;90986.03;;;7.58;100.00
68193;BME280;55012;47.562;18.414;2023-04-01T01:36:27;90964.16;;;7.54;100.00
68193;BME280;55012;47.562;18.414;2023-04-01T01:38:54;90884.47;;;7.56;100.00
68193;BME280;55012;47.562;18.414;2023-04-01T01:41:22;90930.31;;;7.58;100.00
68193;BME280;55012;47.562;18.414;2023-04-01T01:43:50;90852.81;;;7.63;100.00
68193;BME280;55012;47.562;18.414;2023-04-01T01:46:21;90853.13;;;7.59;100.00
68193;BME280;55012;47.562;18.414;2023-04-01T01:48:48;90838.09;;;7.56;100.00
68193;BME280;55012;47.562;18.414;2023-04-01T01:51:17;90818.88;;;7.52;100.00
68193;BME280;55012;47.562;18.414;2023-04-01T01:53:43;90817.63;;;7.53;100.00
68193;BME280;55012;47.562;18.414;2023-04-01T01:56:10;90786.28;;;7.48;100.00
68193;BME280;55012;47.562;18.414;2023-04-01T01:59:02;90765.66;;;7.43;100.00
68193;BME280;55012;47.562;18.414;2023-04-01T02:01:31;90770.13;;;7.40;100.00
68193;BME280;55012;47.562;18.414;2023-04-01T02:03:59;90774.41;;;7.36;100.00
68193;BME280;55012;47.562;18.414;2023-04-01T02:06:26;90755.25;;;7.31;100.00
68193;BME280;55012;47.562;18.414;2023-04-01T02:09:01;90569.59;;;7.27;100.00
68193;BME280;55012;47.562;18.414;2023-04-01T02:11:36;90543.63;;;7.22;100.00
68193;BME280;55012;47.562;18.414;2023-04-01T02:19:06;90543.44;;;7.13;100.00
68193;BME280;55012;47.562;18.414;2023-04-01T02:21:33;90532.72;;;7.13;100.00
68193;BME280;55012;47.562;18.414;2023-04-01T02:24:02;90526.44;;;7.10;100.00
68193;BME280;55012;47.562;18.414;2023-04-01T02:26:29;90520.00;;;7.13;100.00
68193;BME280;55012;47.562;18.414;2023-04-01T02:28:56;90424.97;;;7.16;100.00
68193;BME280;55012;47.562;18.414;2023-04-01T02:31:23;90419.06;;;7.18;100.00
68193;BME280;55012;47.562;18.414;2023-04-01T02:33:49;90399.22;;;7.21;100.00
68193;BME280;55012;47.562;18.414;2023-04-01T02:36:15;90390.06;;;7.24;100.00
68193;BME280;55012;47.562;18.414;2023-04-01T02:38:43;90375.03;;;7.28;100.00
68193;BME280;55012;47.562;18.414;2023-04-01T02:41:10;90370.00;;;7.32;100.00
68193;BME280;55012;47.562;18.414;2023-04-01T02:43:35;90365.53;;;7.27;100.00
68193;BME280;55012;47.562;18.414;2023-04-01T02:46:01;90377.72;;;7.21;100.00
68193;BME280;55012;47.562;18.414;2023-04-01T02:48:27;90376.47;;;7.14;100.00
68193;BME280;55012;47.562;18.414;2023-04-01T02:50:53;90373.44;;;7.10;100.00
68193;BME280;55012;47.562;18.414;2023-04-01T02:53:19;90380.06;;;7.09;100.00
68193;BME280;55012;47.562;18.414;2023-04-01T02:55:44;90379.88;;;7.07;100.00
68193;BME280;55012;47.562;18.414;2023-04-01T02:58:10;90408.88;;;7.09;100.00
68193;BME280;55012;47.562;18.414;2023-04-01T03:00:35;90450.22;;;7.06;100.00
68193;BME280;55012;47.562;18.414;2023-04-01T03:03:01;90422.44;;;7.03;100.00
68193;BME280;55012;47.562;18.414;2023-04-01T03:05:27;90463.44;;;7.03;100.00
68193;BME280;55012;47.562;18.414;2023-04-01T03:07:53;90476.88;;;7.03;100.00
68193;BME280;55012;47.562;18.414;2023-04-01T03:10:19;90481.16;;;7.07;100.00
68193;BME280;55012;47.562;18.414;2023-04-01T03:12:45;90482.75;;;7.10;100.00
68193;BME280;55012;47.562;18.414;2023-04-01T03:15:11;91040.53;;;7.03;100.00
68193;BME280;55012;47.562;18.414;2023-04-01T03:17:38;91014.91;;;7.02;100.00
68193;BME280;55012;47.562;18.414;2023-04-01T03:20:05;91031.94;;;7.05;100.00
68193;BME280;55012;47.562;18.414;2023-04-01T03:22:31;91021.22;;;7.05;100.00
68193;BME280;55012;47.562;18.414;2023-04-01T03:24:56;91040.00;;;7.05;100.00
68193;BME280;55012;47.562;18.414;2023-04-01T03:27:22;91032.97;;;7.02;100.00
68193;BME280;55012;47.562;18.414;2023-04-01T03:29:48;91058.91;;;6.99;100.00
68193;BME280;55012;47.562;18.414;2023-04-01T03:32:14;91056.75;;;6.98;100.00
68193;BME280;55012;47.562;18.414;2023-04-01T03:34:39;91053.34;;;6.97;100.00
68193;BME280;55012;47.562;18.414;2023-04-01T03:37:05;91022.38;;;6.96;100.00
68193;BME280;55012;47.562;18.414;2023-04-01T03:39:31;91021.13;;;6.97;100.00
68193;BME280;55012;47.562;18.414;2023-04-01T03:41:56;91035.56;;;6.94;100.00
68193;BME280;55012;47.562;18.414;2023-04-01T03:44:22;91044.66;;;6.91;100.00
68193;BME280;55012;47.562;18.414;2023-04-01T03:46:47;91030.00;;;6.92;100.00
68193;BME280;55012;47.562;18.414;2023-04-01T03:49:13;91042.00;;;6.91;100.00
68193;BME280;55012;47.562;18.414;2023-04-01T03:51:39;91043.94;;;6.91;100.00
68193;BME280;55012;47.562;18.414;2023-04-01T03:54:05;91041.66;;;6.95;100.00
68193;BME280;55012;47.562;18.414;2023-04-01T03:56:31;91038.25;;;6.94;100.00
68193;BME280;55012;47.562;18.414;2023-04-01T03:58:57;91049.84;;;6.89;100.00
68193;BME280;55012;47.562;18.414;2023-04-01T04:01:22;91053.97;;;6.90;100.00
68193;BME280;55012;47.562;18.414;2023-04-01T04:03:49;91042.41;;;6.95;100.00
68193;BME280;55012;47.562;18.414;2023-04-01T04:06:17;91034.94;;;7.01;100.00
68193;BME280;55012;47.562;18.414;2023-04-01T04:08:43;91020.25;;;7.02;100.00
68193;BME280;55012;47.562;18.414;2023-04-01T04:11:10;91017.28;;;7.06;100.00
68193;BME280;55012;47.562;18.414;2023-04-01T04:13:35;91006.00;;;7.08;100.00
68193;BME280;55012;47.562;18.414;2023-04-01T04:16:02;91020.69;;;7.07;100.00
68193;BME280;55012;47.562;18.414;2023-04-01T04:18:28;90998.69;;;7.08;100.00
68193;BME280;55012;47.562;18.414;2023-04-01T04:20:54;90994.44;;;7.13;100.00
68193;BME280;55012;47.562;18.414;2023-04-01T04:23:19;90985.00;;;7.19;100.00
68193;BME280;55012;47.562;18.414;2023-04-01T04:25:56;90978.25;;;7.26;100.00
68193;BME280;55012;47.562;18.414;2023-04-01T04:28:22;90975.25;;;7.29;100.00
68193;BME280;55012;47.562;18.414;2023-04-01T04:30:47;90975.97;;;7.30;100.00
68193;BME280;55012;47.562;18.414;2023-04-01T04:33:13;90970.06;;;7.31;100.00
68193;BME280;55012;47.562;18.414;2023-04-01T04:35:38;90970.25;;;7.33;100.00
68193;BME280;55012;47.562;18.414;2023-04-01T04:38:04;90974.19;;;7.32;100.00
68193;BME280;55012;47.562;18.414;2023-04-01T04:40:29;90960.22;;;7.34;100.00
68193;BME280;55012;47.562;18.414;2023-04-01T04:42:55;90963.84;;;7.37;100.00
68193;BME280;55012;47.562;18.414;2023-04-01T04:45:20;90954.34;;;7.36;100.00
68193;BME280;55012;47.562;18.414;2023-04-01T04:47:45;90947.94;;;7.39;100.00
68193;BME280;55012;47.562;18.414;2023-04-01T04:50:11;90939.34;;;7.40;100.00
68193;BME280;55012;47.562;18.414;2023-04-01T04:52:37;90950.75;;;7.33;100.00
68193;BME280;55012;47.562;18.414;2023-04-01T04:55:02;90955.91;;;7.31;100.00
68193;BME280;55012;47.562;18.414;2023-04-01T04:57:28;90968.63;;;7.30;100.00
68193;BME280;55012;47.562;18.414;2023-04-01T04:59:53;90941.59;;;7.28;100.00
68193;BME280;55012;47.562;18.414;2023-04-01T05:02:19;90949.50;;;7.34;100.00
68193;BME280;55012;47.562;18.414;2023-04-01T05:04:44;90944.72;;;7.40;100.00
68193;BME280;55012;47.562;18.414;2023-04-01T05:07:10;90956.88;;;7.41;100.00
68193;BME280;55012;47.562;18.414;2023-04-01T05:09:35;90978.38;;;7.41;100.00
68193;BME280;55012;47.562;18.414;2023-04-01T05:12:01;90964.41;;;7.43;100.00
68193;BME280;55012;47.562;18.414;2023-04-01T05:14:26;90972.00;;;7.52;100.00
68193;BME280;55012;47.562;18.414;2023-04-01T05:16:52;90973.84;;;7.57;100.00
68193;BME280;55012;47.562;18.414;2023-04-01T05:19:17;90958.84;;;7.62;100.00
68193;BME280;55012;47.562;18.414;2023-04-01T05:21:43;90954.44;;;7.72;100.00
68193;BME280;55012;47.562;18.414;2023-04-01T05:24:09;90953.91;;;7.73;100.00
68193;BME280;55012;47.562;18.414;2023-04-01T05:26:35;90818.84;;;7.80;100.00
68193;BME280;55012;47.562;18.414;2023-04-01T05:29:02;90883.75;;;7.92;100.00
68193;BME280;55012;47.562;18.414;2023-04-01T05:31:28;90896.00;;;8.08;100.00
68193;BME280;55012;47.562;18.414;2023-04-01T05:33:54;90901.41;;;8.16;100.00
68193;BME280;55012;47.562;18.414;2023-04-01T05:36:20;90888.38;;;8.20;100.00
68193;BME280;55012;47.562;18.414;2023-04-01T05:38:45;90878.88;;;8.34;100.00
68193;BME280;55012;47.562;18.414;2023-04-01T05:41:12;90880.56;;;8.37;100.00
68193;BME280;55012;47.562;18.414;2023-04-01T05:43:39;90865.50;;;8.50;100.00
68193;BME280;55012;47.562;18.414;2023-04-01T05:46:05;90861.41;;;8.56;100.00
68193;BME280;55012;47.562;18.414;2023-04-01T05:48:32;90862.13;;;8.64;100.00
68193;BME280;55012;47.562;18.414;2023-04-01T05:50:57;90850.50;;;8.69;100.00
68193;BME280;55012;47.562;18.414;2023-04-01T05:53:23;90849.56;;;8.67;100.00
68193;BME280;55012;47.562;18.414;2023-04-01T05:55:48;90847.25;;;8.63;100.00
68193;BME280;55012;47.562;18.414;2023-04-01T05:58:14;90842.03;;;8.58;100.00
68193;BME280;55012;47.562;18.414;2023-04-01T06:00:39;90857.09;;;8.53;100.00
68193;BME280;55012;47.562;18.414;2023-04-01T06:03:05;90857.63;;;8.59;100.00
68193;BME280;55012;47.562;18.414;2023-04-01T06:05:40;90814.56;;;8.52;100.00
68193;BME280;55012;47.562;18.414;2023-04-01T06:08:11;90800.78;;;8.55;100.00
68193;BME280;55012;47.562;18.414;2023-04-01T06:21:50;90712.88;;;8.73;100.00
68193;BME280;55012;47.562;18.414;2023-04-01T06:38:33;90870.38;;;8.66;100.00
68193;BME280;55012;47.562;18.414;2023-04-01T06:41:04;90935.34;;;8.70;100.00
68193;BME280;55012;47.562;18.414;2023-04-01T06:54:43;91185.47;;;9.41;100.00
68193;BME280;55012;47.562;18.414;2023-04-01T06:59:54;91309.22;;;9.67;100.00
68193;BME280;55012;47.562;18.414;2023-04-01T07:04:58;91425.66;;;9.87;100.00
68193;BME280;55012;47.562;18.414;2023-04-01T07:07:35;91489.25;;;9.82;100.00
68193;BME280;55012;47.562;18.414;2023-04-01T07:10:13;91544.44;;;9.81;100.00
68193;BME280;55012;47.562;18.414;2023-04-01T07:12:52;91662.25;;;9.86;100.00
68193;BME280;55012;47.562;18.414;2023-04-01T07:15:22;91860.75;;;9.89;100.00
68193;BME280;55012;47.562;18.414;2023-04-01T07:17:56;92043.97;;;9.87;100.00
68193;BME280;55012;47.562;18.414;2023-04-01T07:20:27;92237.81;;;9.77;100.00
68193;BME280;55012;47.562;18.414;2023-04-01T07:22:58;92382.03;;;9.71;100.00
68193;BME280;55012;47.562;18.414;2023-04-01T07:25:31;92494.78;;;9.72;100.00
68193;BME280;55012;47.562;18.414;2023-04-01T07:28:12;92611.84;;;9.94;100.00
68193;BME280;55012;47.562;18.414;2023-04-01T07:31:30;92683.81;;;10.51;100.00
68193;BME280;55012;47.562;18.414;2023-04-01T07:34:20;92809.94;;;10.92;100.00
68193;BME280;55012;47.562;18.414;2023-04-01T07:37:06;92945.63;;;11.20;100.00
68193;BME280;55012;47.562;18.414;2023-04-01T07:39:55;93146.59;;;11.40;100.00
68193;BME280;55012;47.562;18.414;2023-04-01T07:50:47;94198.16;;;11.10;100.00
68193;BME280;55012;47.562;18.414;2023-04-01T08:04:13;95484.47;;;11.25;100.00
68193;BME280;55012;47.562;18.414;2023-04-01T08:10:00;95906.38;;;10.46;100.00
68193;BME280;55012;47.562;18.414;2023-04-01T08:15:35;96114.13;;;10.24;100.00
68193;BME280;55012;47.562;18.414;2023-04-01T08:18:56;96171.06;;;10.13;100.00
68193;BME280;55012;47.562;18.414;2023-04-01T08:21:00;96230.94;;;10.08;100.00
68193;BME280;55012;47.562;18.414;2023-04-01T08:23:40;96261.78;;;10.10;100.00
68193;BME280;55012;47.562;18.414;2023-04-01T08:28:44;96332.19;;;10.23;100.00
68193;BME280;55012;47.562;18.414;2023-04-01T08:33:53;96470.78;;;10.20;100.00
68193;BME280;55012;47.562;18.414;2023-04-01T08:36:36;96508.19;;;10.22;100.00
68193;BME280;55012;47.562;18.414;2023-04-01T08:45:09;96641.28;;;10.56;100.00
68193;BME280;55012;47.562;18.414;2023-04-01T08:54:18;96744.38;;;11.16;100.00
68193;BME280;55012;47.562;18.414;2023-04-01T09:08:07;97004.16;;;11.50;100.00
68193;BME280;55012;47.562;18.414;2023-04-01T09:11:06;97013.38;;;11.56;100.00
68193;BME280;55012;47.562;18.414;2023-04-01T09:14:02;97034.25;;;11.59;100.00
68193;BME280;55012;47.562;18.414;2023-04-01T09:20:06;97155.97;;;11.70;100.00
68193;BME280;55012;47.562;18.414;2023-04-01T09:25:44;97201.38;;;12.00;100.00
68193;BME280;55012;47.562;18.414;2023-04-01T09:28:27;97281.44;;;12.04;100.00
68193;BME280;55012;47.562;18.414;2023-04-01T09:41:30;97525.69;;;12.14;100.00
68193;BME280;55012;47.562;18.414;2023-04-01T10:00:29;97631.81;;;12.12;100.00
68193;BME280;55012;47.562;18.414;2023-04-01T10:14:02;97845.56;;;11.96;100.00
68193;BME280;55012;47.562;18.414;2023-04-01T10:19:31;97847.06;;;12.54;100.00
68193;BME280;55012;47.562;18.414;2023-04-01T10:28:30;97916.72;;;12.89;100.00
68193;BME280;55012;47.562;18.414;2023-04-01T10:31:19;97929.53;;;12.88;100.00
68193;BME280;55012;47.562;18.414;2023-04-01T10:36:52;97959.38;;;12.92;100.00
68193;BME280;55012;47.562;18.414;2023-04-01T10:39:35;97939.63;;;12.74;100.00
68193;BME280;55012;47.562;18.414;2023-04-01T10:53:34;97900.88;;;12.73;100.00
68193;BME280;55012;47.562;18.414;2023-04-01T11:04:46;97931.94;;;12.51;100.00
68193;BME280;55012;47.562;18.414;2023-04-01T11:26:02;97936.13;;;12.80;100.00
68193;BME280;55012;47.562;18.414;2023-04-01T11:31:50;97986.47;;;13.13;100.00
68193;BME280;55012;47.562;18.414;2023-04-01T11:37:15;97995.09;;;12.69;100.00
68193;BME280;55012;47.562;18.414;2023-04-01T11:40:27;98006.31;;;12.43;100.00
68193;BME280;55012;47.562;18.414;2023-04-01T11:48:22;97926.47;;;12.65;100.00
68193;BME280;55012;47.562;18.414;2023-04-01T11:51:24;97926.06;;;12.84;100.00
68193;BME280;55012;47.562;18.414;2023-04-01T11:54:18;97906.66;;;12.86;100.00
68193;BME280;55012;47.562;18.414;2023-04-01T11:57:04;97900.06;;;12.87;100.00
68193;BME280;55012;47.562;18.414;2023-04-01T11:59:51;97890.38;;;12.82;100.00
68193;BME280;55012;47.562;18.414;2023-04-01T12:02:29;97907.44;;;12.86;100.00
68193;BME280;55012;47.562;18.414;2023-04-01T12:08:04;97947.03;;;12.66;100.00
68193;BME280;55012;47.562;18.414;2023-04-01T12:10:54;97952.06;;;12.64;100.00
68193;BME280;55012;47.562;18.414;2023-04-01T12:13:45;97912.50;;;12.84;100.00
68193;BME280;55012;47.562;18.414;2023-04-01T12:19:17;97915.47;;;13.18;100.00
68193;BME280;55012;47.562;18.414;2023-04-01T13:00:27;98007.44;;;13.27;100.00
68193;BME280;55012;47.562;18.414;2023-04-01T13:09:03;97970.91;;;13.32;100.00
68193;BME280;55012;47.562;18.414;2023-04-01T13:19:32;98022.91;;;13.44;100.00
68193;BME280;55012;47.562;18.414;2023-04-01T13:32:52;97969.78;;;13.29;100.00
68193;BME280;55012;47.562;18.414;2023-04-01T13:35:52;97968.94;;;13.50;100.00
68193;BME280;55012;47.562;18.414;2023-04-01T13:58:49;98002.94;;;13.83;100.00
68193;BME280;55012;47.562;18.414;2023-04-01T14:01:49;98012.22;;;13.93;100.00
68193;BME280;55012;47.562;18.414;2023-04-01T14:25:30;98200.22;;;15.86;100.00
68193;BME280;55012;47.562;18.414;2023-04-01T14:31:15;98335.94;;;18.27;100.00
68193;BME280;55012;47.562;18.414;2023-04-01T14:47:48;95882.25;;;21.21;100.00
68193;BME280;55012;47.562;18.414;2023-04-01T14:50:28;96241.38;;;21.55;100.00
68193;BME280;55012;47.562;18.414;2023-04-01T14:53:31;96646.97;;;20.40;100.00
68193;BME280;55012;47.562;18.414;2023-04-01T14:56:01;96673.28;;;18.88;100.00
68193;BME280;55012;47.562;18.414;2023-04-01T15:04:10;96528.19;;;17.58;100.00
68193;BME280;55012;47.562;18.414;2023-04-01T15:06:47;96656.81;;;18.28;100.00
68193;BME280;55012;47.562;18.414;2023-04-01T15:17:32;96660.59;;;15.92;100.00
68193;BME280;55012;47.562;18.414;2023-04-01T15:33:25;97187.81;;;20.07;100.00
68193;BME280;55012;47.562;18.414;2023-04-01T15:36:25;97284.38;;;20.51;100.00
68193;BME280;55012;47.562;18.414;2023-04-01T15:39:01;97266.09;;;20.57;100.00
68193;BME280;55012;47.562;18.414;2023-04-01T15:55:31;97175.56;;;17.37;100.00
68193;BME280;55012;47.562;18.414;2023-04-01T15:58:40;97200.88;;;17.76;100.00
68193;BME280;55012;47.562;18.414;2023-04-01T16:01:59;97239.31;;;17.47;100.00
68193;BME280;55012;47.562;18.414;2023-04-01T16:10:27;97145.44;;;17.16;100.00
68193;BME280;55012;47.562;18.414;2023-04-01T16:13:21;97141.63;;;17.13;100.00
68193;BME280;55012;47.562;18.414;2023-04-01T16:23:50;97079.06;;;16.80;100.00
68193;BME280;55012;47.562;18.414;2023-04-01T16:34:40;97116.00;;;16.72;100.00
68193;BME280;55012;47.562;18.414;2023-04-01T16:37:13;97093.75;;;16.19;100.00
68193;BME280;55012;47.562;18.414;2023-04-01T16:39:46;96977.00;;;15.60;100.00
68193;BME280;55012;47.562;18.414;2023-04-01T16:45:19;96890.41;;;15.38;100.00
68193;BME280;55012;47.562;18.414;2023-04-01T16:47:56;96847.56;;;15.13;100.00
68193;BME280;55012;47.562;18.414;2023-04-01T16:53:17;96707.78;;;14.24;100.00
68193;BME280;55012;47.562;18.414;2023-04-01T16:58:56;96460.38;;;13.57;100.00
68193;BME280;55012;47.562;18.414;2023-04-01T17:01:27;96524.84;;;13.27;100.00
68193;BME280;55012;47.562;18.414;2023-04-01T17:04:04;96649.53;;;13.34;100.00
68193;BME280;55012;47.562;18.414;2023-04-01T17:14:37;97429.47;;;12.81;100.00
68193;BME280;55012;47.562;18.414;2023-04-01T17:20:31;97882.69;;;12.49;100.00
68193;BME280;55012;47.562;18.414;2023-04-01T17:31:11;97897.84;;;12.00;100.00
68193;BME280;55012;47.562;18.414;2023-04-01T17:36:32;97975.63;;;11.81;100.00
68193;BME280;55012;47.562;18.414;2023-04-01T17:47:07;98022.34;;;11.57;100.00
68193;BME280;55012;47.562;18.414;2023-04-01T17:50:42;98032.34;;;11.49;100.00
68193;BME280;55012;47.562;18.414;2023-04-01T18:17:48;98004.25;;;10.99;100.00
68193;BME280;55012;47.562;18.414;2023-04-01T18:26:24;98026.22;;;10.90;100.00
68193;BME280;55012;47.562;18.414;2023-04-01T18:32:07;98038.47;;;10.74;100.00
68193;BME280;55012;47.562;18.414;2023-04-01T18:40:25;98042.19;;;10.58;100.00
68193;BME280;55012;47.562;18.414;2023-04-01T18:45:54;98049.06;;;10.45;100.00
68193;BME280;55012;47.562;18.414;2023-04-01T18:51:26;98056.63;;;10.29;100.00
68193;BME280;55012;47.562;18.414;2023-04-01T18:54:11;98053.81;;;10.22;100.00
68193;BME280;55012;47.562;18.414;2023-04-01T18:56:40;98059.53;;;10.17;100.00
68193;BME280;55012;47.562;18.414;2023-04-01T19:02:10;98073.41;;;10.11;100.00
68193;BME280;55012;47.562;18.414;2023-04-01T19:04:43;98080.31;;;10.09;100.00
68193;BME280;55012;47.562;18.414;2023-04-01T19:13:07;98073.16;;;10.24;100.00
68193;BME280;55012;47.562;18.414;2023-04-01T19:18:47;98084.16;;;10.41;100.00
68193;BME280;55012;47.562;18.414;2023-04-01T19:21:37;98080.72;;;10.45;100.00
68193;BME280;55012;47.562;18.414;2023-04-01T19:29:16;98083.13;;;10.53;100.00
68193;BME280;55012;47.562;18.414;2023-04-01T19:32:14;98095.09;;;10.56;100.00
68193;BME280;55012;47.562;18.414;2023-04-01T19:34:57;98106.31;;;10.58;100.00
68193;BME280;55012;47.562;18.414;2023-04-01T19:43:12;98115.25;;;10.62;100.00
68193;BME280;55012;47.562;18.414;2023-04-01T19:51:39;98142.34;;;10.65;100.00
68193;BME280;55012;47.562;18.414;2023-04-01T19:54:25;98149.19;;;10.56;100.00
68193;BME280;55012;47.562;18.414;2023-04-01T19:57:15;98156.75;;;10.39;100.00
68193;BME280;55012;47.562;18.414;2023-04-01T20:03:21;98164.59;;;10.18;100.00
68193;BME280;55012;47.562;18.414;2023-04-01T20:08:38;98164.06;;;10.09;100.00
68193;BME280;55012;47.562;18.414;2023-04-01T20:14:21;98161.88;;;9.88;100.00
68193;BME280;55012;47.562;18.414;2023-04-01T20:19:41;98144.03;;;9.80;100.00
68193;BME280;55012;47.562;18.414;2023-04-01T20:24:51;98153.31;;;9.82;100.00
68193;BME280;55012;47.562;18.414;2023-04-01T20:27:24;98154.09;;;9.83;100.00
68193;BME280;55012;47.562;18.414;2023-04-01T20:49:27;98163.53;;;9.17;100.00
68193;BME280;55012;47.562;18.414;2023-04-01T20:52:17;98151.53;;;9.11;100.00
68193;BME280;55012;47.562;18.414;2023-04-01T20:57:45;98141.25;;;8.97;100.00
68193;BME280;55012;47.562;18.414;2023-04-01T21:03:26;98124.91;;;8.86;100.00
68193;BME280;55012;47.562;18.414;2023-04-01T21:28:06;98109.44;;;8.60;100.00
68193;BME280;55012;47.562;18.414;2023-04-01T21:31:00;98109.38;;;8.57;100.00
68193;BME280;55012;47.562;18.414;2023-04-01T21:38:48;98104.34;;;8.55;100.00
68193;BME280;55012;47.562;18.414;2023-04-01T22:09:39;98066.66;;;8.59;100.00
68193;BME280;55012;47.562;18.414;2023-04-01T22:12:15;98067.09;;;8.61;100.00
68193;BME280;55012;47.562;18.414;2023-04-01T22:14:55;98065.97;;;8.62;100.00
68193;BME280;55012;47.562;18.414;2023-04-01T22:17:35;98063.97;;;8.59;100.00
68193;BME280;55012;47.562;18.414;2023-04-01T22:28:57;98044.75;;;8.37;100.00
68193;BME280;55012;47.562;18.414;2023-04-01T22:31:30;98039.25;;;8.34;100.00
68193;BME280;55012;47.562;18.414;2023-04-01T22:37:40;98012.69;;;8.32;100.00
68193;BME280;55012;47.562;18.414;2023-04-01T22:43:36;98001.91;;;8.32;100.00
68193;BME280;55012;47.562;18.414;2023-04-01T22:48:58;97984.53;;;8.30;100.00
68193;BME280;55012;47.562;18.414;2023-04-01T22:56:37;97983.66;;;8.22;100.00
68193;BME280;55012;47.562;18.414;2023-04-01T23:01:44;97975.06;;;8.16;100.00
68193;BME280;55012;47.562;18.414;2023-04-01T23:04:15;97981.97;;;8.14;100.00
68193;BME280;55012;47.562;18.414;2023-04-01T23:06:46;97971.19;;;8.14;100.00
68193;BME280;55012;47.562;18.414;2023-04-01T23:09:31;97969.66;;;8.13;100.00
68193;BME280;55012;47.562;18.414;2023-04-01T23:12:02;97961.47;;;8.09;100.00
68193;BME280;55012;47.562;18.414;2023-04-01T23:14:36;97963.00;;;8.07;100.00
68193;BME280;55012;47.562;18.414;2023-04-01T23:17:30;97958.75;;;8.06;100.00
68193;BME280;55012;47.562;18.414;2023-04-01T23:20:17;97946.41;;;8.05;100.00
68193;BME280;55012;47.562;18.414;2023-04-01T23:23:08;97945.28;;;8.06;100.00
68193;BME280;55012;47.562;18.414;2023-04-01T23:26:25;97942.16;;;8.04;100.00
68193;BME280;55012;47.562;18.414;2023-04-01T23:31:03;97930.19;;;8.01;100.00
68193;BME280;55012;47.562;18.414;2023-04-01T23:33:30;97929.00;;;7.99;100.00
68193;BME280;55012;47.562;18.414;2023-04-01T23:36:10;97922.06;;;7.98;100.00
68193;BME280;55012;47.562;18.414;2023-04-01T23:38:39;97922.41;;;7.96;100.00
68193;BME280;55012;47.562;18.414;2023-04-01T23:41:07;97923.56;;;7.95;100.00
68193;BME280;55012;47.562;18.414;2023-04-01T23:43:37;97915.47;;;7.95;100.00
68193;BME280;55012;47.562;18.414;2023-04-01T23:46:05;97910.44;;;7.94;100.00
68193;BME280;55012;47.562;18.414;2023-04-01T23:48:43;97916.19;;;7.92;100.00
68193;BME280;55012;47.562;18.414;2023-04-01T23:51:27;97906.16;;;7.89;100.00
68193;BME280;55012;47.562;18.414;2023-04-01T23:54:02;97899.91;;;7.85;100.00
68193;BME280;55012;47.562;18.414;2023-04-01T23:56:35;97890.28;;;7.84;100.00
68193;BME280;55012;47.562;18.414;2023-04-01T23:59:03;97883.69;;;7.81;100.00
